createdAt,value
2023-12-17T00:01:17.111Z,102117.03
2023-12-17T00:03:45.115Z,102109.28
2023-12-17T00:06:12.793Z,102112.34
2023-12-17T00:08:39.732Z,102098.84
2023-12-17T00:11:06.763Z,102100.63
2023-12-17T00:13:35.886Z,102087.34
2023-12-17T00:16:03.350Z,102083.56
2023-12-17T00:18:30.215Z,102083.94
2023-12-17T00:20:57.291Z,102084.44
2023-12-17T00:23:24.064Z,102078.00
2023-12-17T00:25:50.983Z,102068.50
2023-12-17T00:28:17.784Z,102072.94
2023-12-17T00:30:47.370Z,102068.72
2023-12-17T00:33:14.729Z,102069.81
2023-12-17T00:35:41.486Z,102064.56
2023-12-17T00:38:08.323Z,102062.25
2023-12-17T00:40:35.032Z,102055.47
2023-12-17T00:43:02.288Z,102058.66
2023-12-17T00:45:29.647Z,102049.75
2023-12-17T00:47:58.418Z,102052.66
2023-12-17T00:50:25.854Z,102051.81
2023-12-17T00:52:52.655Z,102041.75
2023-12-17T00:55:20.205Z,102045.44
2023-12-17T00:57:47.497Z,102031.91
2023-12-17T01:00:15.785Z,102031.47
2023-12-17T01:02:46.304Z,102020.00
2023-12-17T01:05:15.206Z,102017.34
2023-12-17T01:07:42.895Z,102006.09
2023-12-17T01:10:10.427Z,102002.72
2023-12-17T01:12:37.147Z,102001.81
2023-12-17T01:15:05.205Z,101993.75
2023-12-17T01:17:32.786Z,101978.84
2023-12-17T01:20:00.548Z,101984.00
2023-12-17T01:22:31.293Z,101975.78
2023-12-17T01:24:59.567Z,101982.78
2023-12-17T01:27:26.990Z,101976.47
2023-12-17T01:29:54.448Z,101965.19
2023-12-17T01:32:21.181Z,101981.38
2023-12-17T01:34:47.887Z,101975.44
2023-12-17T01:37:14.554Z,101971.78
2023-12-17T01:39:42.581Z,101968.19
2023-12-17T01:42:10.075Z,101976.59
2023-12-17T01:44:36.885Z,101972.69
2023-12-17T01:47:06.882Z,101973.94
2023-12-17T01:49:34.709Z,101974.06
2023-12-17T01:52:02.383Z,101966.44
2023-12-17T01:54:29.883Z,101976.28
2023-12-17T01:56:58.933Z,101980.59
2023-12-17T01:59:26.522Z,101978.44
2023-12-17T02:01:54.471Z,101968.28
2023-12-17T02:04:22.311Z,101981.09
2023-12-17T02:06:49.183Z,101975.34
2023-12-17T02:09:16.432Z,101969.75
2023-12-17T02:11:43.157Z,101979.63
2023-12-17T02:14:11.472Z,101978.16
2023-12-17T02:16:38.555Z,101974.75
2023-12-17T02:19:19.600Z,101977.44
2023-12-17T02:21:54.704Z,101974.44
2023-12-17T02:24:29.368Z,101984.88
2023-12-17T02:26:56.176Z,101979.91
2023-12-17T02:29:26.560Z,101987.97
2023-12-17T02:31:57.508Z,101973.75
2023-12-17T02:34:24.696Z,101970.47
2023-12-17T02:36:51.668Z,101969.44
2023-12-17T02:39:22.467Z,101972.06
2023-12-17T02:41:54.711Z,101971.81
2023-12-17T02:50:43.530Z,101950.09
2023-12-17T02:53:11.020Z,101939.88
2023-12-17T02:55:38.874Z,101945.72
2023-12-17T02:58:07.511Z,101935.47
2023-12-17T03:00:34.372Z,101945.50
2023-12-17T03:03:01.771Z,101946.75
2023-12-17T03:05:28.552Z,101932.38
2023-12-17T03:07:56.119Z,101930.78
2023-12-17T03:10:22.963Z,101930.47
2023-12-17T03:12:49.702Z,101929.47
2023-12-17T03:15:18.028Z,101923.00
2023-12-17T03:18:08.648Z,101914.66
2023-12-17T03:21:15.468Z,101921.75
2023-12-17T03:23:42.298Z,101906.81
2023-12-17T03:26:09.089Z,101899.78
2023-12-17T03:28:36.692Z,101896.56
2023-12-17T03:31:05.106Z,101872.50
2023-12-17T03:33:32.165Z,101871.91
2023-12-17T03:35:58.964Z,101867.06
2023-12-17T03:38:25.653Z,101855.44
2023-12-17T03:40:52.445Z,101857.78
2023-12-17T03:43:19.931Z,101842.03
2023-12-17T03:45:47.459Z,101841.31
2023-12-17T03:48:16.449Z,101841.19
2023-12-17T03:50:46.726Z,101834.34
2023-12-17T03:53:16.966Z,101830.53
2023-12-17T03:55:44.297Z,101824.59
2023-12-17T03:58:11.648Z,101824.22
2023-12-17T04:00:38.947Z,101826.88
2023-12-17T04:03:06.243Z,101826.06
2023-12-17T04:05:37.497Z,101816.06
2023-12-17T04:08:08.166Z,101811.06
2023-12-17T04:10:35.090Z,101812.34
2023-12-17T04:13:01.845Z,101812.09
2023-12-17T04:15:28.720Z,101804.63
2023-12-17T04:17:55.830Z,101798.66
2023-12-17T04:20:22.683Z,101801.28
2023-12-17T04:22:50.983Z,101807.63
2023-12-17T04:25:17.635Z,101798.75
2023-12-17T04:27:44.640Z,101792.94
2023-12-17T04:30:13.109Z,101794.19
2023-12-17T04:32:39.971Z,101789.38
2023-12-17T04:35:07.381Z,101786.88
2023-12-17T04:37:34.580Z,101785.94
2023-12-17T04:40:02.723Z,101781.59
2023-12-17T04:42:31.045Z,101772.16
2023-12-17T04:44:59.435Z,101762.13
2023-12-17T04:47:26.207Z,101774.00
2023-12-17T04:49:52.854Z,101776.50
2023-12-17T04:52:22.195Z,101777.00
2023-12-17T04:54:48.813Z,101775.72
2023-12-17T04:57:17.274Z,101769.59
2023-12-17T04:59:44.226Z,101770.91
2023-12-17T05:02:10.875Z,101767.44
2023-12-17T05:04:37.628Z,101754.00
2023-12-17T05:07:04.778Z,101742.56
2023-12-17T05:09:31.452Z,101753.53
2023-12-17T05:11:58.167Z,101751.56
2023-12-17T05:14:26.324Z,101749.00
2023-12-17T05:16:53.583Z,101728.31
2023-12-17T05:19:31.612Z,101722.97
2023-12-17T05:21:58.902Z,101724.91
2023-12-17T05:24:26.498Z,101725.72
2023-12-17T05:26:56.264Z,101723.50
2023-12-17T05:29:23.705Z,101735.47
2023-12-17T05:31:54.991Z,101734.97
2023-12-17T05:34:23.382Z,101728.59
2023-12-17T05:36:50.914Z,101735.84
2023-12-17T05:39:18.368Z,101729.81
2023-12-17T05:41:46.325Z,101740.97
2023-12-17T05:44:14.106Z,101741.44
2023-12-17T05:46:41.697Z,101734.47
2023-12-17T05:49:10.606Z,101736.47
2023-12-17T05:51:37.928Z,101731.50
2023-12-17T05:54:05.140Z,101735.94
2023-12-17T05:56:32.746Z,101729.72
2023-12-17T05:59:00.204Z,101744.28
2023-12-17T06:01:27.545Z,101739.63
2023-12-17T06:03:55.130Z,101735.66
2023-12-17T06:08:53.932Z,101736.88
2023-12-17T06:11:23.580Z,101739.38
2023-12-17T06:13:51.021Z,101753.22
2023-12-17T06:16:18.311Z,101750.00
2023-12-17T06:18:45.912Z,101752.50
2023-12-17T06:21:24.354Z,101746.28
2023-12-17T06:23:52.324Z,101739.13
2023-12-17T06:26:20.116Z,101744.50
2023-12-17T06:28:47.381Z,101747.16
2023-12-17T06:31:18.200Z,101748.59
2023-12-17T06:33:45.686Z,101742.22
2023-12-17T06:36:13.817Z,101736.41
2023-12-17T06:38:42.757Z,101749.63
2023-12-17T06:41:10.052Z,101755.22
2023-12-17T06:43:38.494Z,101758.28
2023-12-17T06:46:08.422Z,101749.31
2023-12-17T06:48:35.345Z,101756.50
2023-12-17T06:51:03.469Z,101750.13
2023-12-17T06:53:31.096Z,101745.78
2023-12-17T06:55:59.754Z,101751.09
2023-12-17T06:58:26.729Z,101762.41
2023-12-17T07:00:54.020Z,101763.78
2023-12-17T07:03:21.379Z,101767.22
2023-12-17T07:05:49.030Z,101754.56
2023-12-17T07:08:16.514Z,101761.22
2023-12-17T07:10:43.714Z,101759.16
2023-12-17T07:13:15.730Z,101761.72
2023-12-17T07:15:42.963Z,101757.47
2023-12-17T07:18:10.502Z,101753.00
2023-12-17T07:20:37.764Z,101751.38
2023-12-17T07:23:04.991Z,101748.84
2023-12-17T07:25:32.632Z,101743.31
2023-12-17T07:28:00.084Z,101749.88
2023-12-17T07:30:32.281Z,101739.69
2023-12-17T07:32:59.908Z,101740.59
2023-12-17T07:35:27.443Z,101739.44
2023-12-17T07:37:54.718Z,101736.34
2023-12-17T07:40:22.225Z,101744.69
2023-12-17T07:42:49.634Z,101745.75
2023-12-17T07:45:17.001Z,101748.78
2023-12-17T07:47:46.810Z,101746.31
2023-12-17T07:50:17.554Z,101731.59
2023-12-17T07:52:44.958Z,101741.06
2023-12-17T07:55:12.191Z,101726.59
2023-12-17T07:57:40.117Z,101731.53
2023-12-17T08:00:08.071Z,101740.28
2023-12-17T08:02:35.329Z,101734.28
2023-12-17T08:05:04.756Z,101739.31
2023-12-17T08:07:32.200Z,101739.00
2023-12-17T08:09:59.083Z,101740.56
2023-12-17T08:12:26.753Z,101743.38
2023-12-17T08:14:54.150Z,101738.69
2023-12-17T08:17:21.345Z,101714.38
2023-12-17T08:19:48.523Z,101722.97
2023-12-17T08:22:20.185Z,101716.44
2023-12-17T08:24:47.475Z,101719.88
2023-12-17T08:27:14.863Z,101718.88
2023-12-17T08:29:42.492Z,101720.63
2023-12-17T08:32:10.352Z,101730.69
2023-12-17T08:34:37.622Z,101719.31
2023-12-17T08:37:05.197Z,101721.34
2023-12-17T08:39:39.675Z,101736.41
2023-12-17T08:42:07.638Z,101725.69
2023-12-17T08:44:35.460Z,101717.44
2023-12-17T08:47:02.614Z,101726.22
2023-12-17T08:49:30.130Z,101721.44
2023-12-17T08:51:57.444Z,101726.56
2023-12-17T08:54:24.773Z,101730.91
2023-12-17T08:56:53.898Z,101729.19
2023-12-17T08:59:21.606Z,101737.84
2023-12-17T09:01:48.966Z,101726.47
2023-12-17T09:04:16.344Z,101729.81
2023-12-17T09:06:43.795Z,101724.03
2023-12-17T09:09:11.548Z,101724.94
2023-12-17T09:11:38.715Z,101732.44
2023-12-17T09:14:07.572Z,101751.25
2023-12-17T09:16:35.754Z,101742.13
2023-12-17T09:19:03.370Z,101736.75
2023-12-17T09:21:30.970Z,101739.94
2023-12-17T09:23:58.561Z,101730.88
2023-12-17T09:26:26.184Z,101742.69
2023-12-17T09:28:53.422Z,101745.44
2023-12-17T09:31:22.846Z,101761.03
2023-12-17T09:33:50.398Z,101757.94
2023-12-17T09:36:17.767Z,101754.53
2023-12-17T09:38:45.396Z,101755.88
2023-12-17T09:41:12.809Z,101751.72
2023-12-17T09:43:43.566Z,101753.13
2023-12-17T09:46:11.188Z,101757.94
2023-12-17T09:48:39.985Z,101750.00
2023-12-17T09:51:09.158Z,101751.13
2023-12-17T09:53:40.230Z,101753.31
2023-12-17T09:56:08.980Z,101749.88
2023-12-17T09:58:35.695Z,101748.47
2023-12-17T10:01:03.281Z,101752.19
2023-12-17T10:03:31.479Z,101759.44
2023-12-17T10:06:00.654Z,101763.53
2023-12-17T10:08:28.157Z,101768.16
2023-12-17T10:10:58.461Z,101774.72
2023-12-17T10:13:25.729Z,101763.09
2023-12-17T10:15:57.972Z,101764.47
2023-12-17T10:18:25.537Z,101759.38
2023-12-17T10:20:52.862Z,101759.75
2023-12-17T10:23:21.600Z,101772.75
2023-12-17T10:25:59.546Z,101772.63
2023-12-17T10:28:26.941Z,101767.31
2023-12-17T10:30:54.863Z,101764.47
2023-12-17T10:33:27.293Z,101774.38
2023-12-17T10:35:55.528Z,101776.31
2023-12-17T10:38:24.896Z,101775.47
2023-12-17T10:40:52.520Z,101772.16
2023-12-17T10:43:20.955Z,101777.38
2023-12-17T10:45:50.225Z,101778.34
2023-12-17T10:48:21.316Z,101771.00
2023-12-17T10:50:49.997Z,101767.81
2023-12-17T10:53:16.764Z,101773.66
2023-12-17T10:55:44.929Z,101781.53
2023-12-17T10:58:20.824Z,101774.91
2023-12-17T11:00:47.933Z,101771.75
2023-12-17T11:03:15.580Z,101759.63
2023-12-17T11:05:55.287Z,101755.59
2023-12-17T11:08:23.711Z,101754.53
2023-12-17T11:10:54.692Z,101751.13
2023-12-17T11:13:21.901Z,101749.22
2023-12-17T11:15:48.646Z,101751.97
2023-12-17T11:18:16.312Z,101743.91
2023-12-17T11:20:43.956Z,101738.03
2023-12-17T11:23:11.610Z,101761.44
2023-12-17T11:25:40.423Z,101741.75
2023-12-17T11:28:09.265Z,101746.91
2023-12-17T11:30:36.877Z,101744.88
2023-12-17T11:33:04.298Z,101733.41
2023-12-17T11:35:32.026Z,101734.66
2023-12-17T11:37:59.394Z,101741.44
2023-12-17T11:40:28.468Z,101734.91
2023-12-17T11:43:02.937Z,101732.28
2023-12-17T11:45:36.072Z,101730.88
2023-12-17T11:48:10.612Z,101735.97
2023-12-17T11:50:45.512Z,101726.25
2023-12-17T11:53:14.719Z,101732.47
2023-12-17T11:55:46.448Z,101721.19
2023-12-17T11:58:14.196Z,101740.69
2023-12-17T12:00:42.957Z,101734.56
2023-12-17T12:03:10.360Z,101730.97
2023-12-17T12:05:37.775Z,101729.22
2023-12-17T12:08:05.748Z,101734.72
2023-12-17T12:10:33.307Z,101727.69
2023-12-17T12:13:04.018Z,101724.13
2023-12-17T12:15:30.838Z,101717.03
2023-12-17T12:17:59.969Z,101715.50
2023-12-17T12:20:37.222Z,101716.56
2023-12-17T12:23:09.933Z,101719.03
2023-12-17T12:25:37.351Z,101706.69
2023-12-17T12:28:04.139Z,101712.19
2023-12-17T12:30:31.989Z,101710.91
2023-12-17T12:33:11.485Z,101709.44
2023-12-17T12:35:38.887Z,101707.56
2023-12-17T12:38:21.205Z,101710.41
2023-12-17T12:40:49.213Z,101699.22
2023-12-17T12:43:16.635Z,101703.19
2023-12-17T12:45:44.385Z,101699.81
2023-12-17T12:48:24.637Z,101700.19
2023-12-17T12:50:52.853Z,101709.28
2023-12-17T12:53:26.191Z,101687.41
2023-12-17T12:55:55.075Z,101711.22
2023-12-17T12:58:22.293Z,101718.34
2023-12-17T13:00:50.168Z,101718.94
2023-12-17T13:03:17.806Z,101701.81
2023-12-17T13:05:46.528Z,101684.81
2023-12-17T13:08:13.296Z,101685.31
2023-12-17T13:10:40.175Z,101688.31
2023-12-17T13:13:07.274Z,101686.47
2023-12-17T13:15:35.442Z,101683.69
2023-12-17T13:18:02.902Z,101675.00
2023-12-17T13:20:29.762Z,101679.53
2023-12-17T13:22:58.070Z,101671.47
2023-12-17T13:25:24.925Z,101664.78
2023-12-17T13:27:51.625Z,101661.63
2023-12-17T13:30:18.736Z,101650.84
2023-12-17T13:32:46.135Z,101652.03
2023-12-17T13:35:13.183Z,101655.69
2023-12-17T13:37:40.057Z,101654.06
2023-12-17T13:40:14.409Z,101646.19
2023-12-17T13:42:41.446Z,101646.56
2023-12-17T13:45:11.281Z,101648.56
2023-12-17T13:47:38.915Z,101632.94
2023-12-17T13:50:07.220Z,101638.13
2023-12-17T13:52:34.743Z,101649.53
2023-12-17T13:55:02.015Z,101649.88
2023-12-17T13:57:30.798Z,101631.75
2023-12-17T13:59:58.445Z,101635.72
2023-12-17T14:02:25.843Z,101618.00
2023-12-17T14:04:53.261Z,101620.41
2023-12-17T14:07:21.208Z,101629.88
2023-12-17T14:09:48.371Z,101626.75
2023-12-17T14:12:15.885Z,101619.72
2023-12-17T14:14:44.566Z,101611.66
2023-12-17T14:17:11.923Z,101608.03
2023-12-17T14:19:39.249Z,101607.78
2023-12-17T14:22:06.609Z,101611.03
2023-12-17T14:24:34.595Z,101603.75
2023-12-17T14:27:01.663Z,101602.69
2023-12-17T14:29:29.698Z,101603.47
2023-12-17T14:31:58.174Z,101593.09
2023-12-17T14:34:28.191Z,101599.50
2023-12-17T14:36:55.472Z,101580.59
2023-12-17T14:39:22.820Z,101570.13
2023-12-17T14:41:50.466Z,101572.19
2023-12-17T14:44:17.741Z,101569.19
2023-12-17T14:46:45.043Z,101571.72
2023-12-17T14:49:13.959Z,101568.41
2023-12-17T14:51:41.641Z,101564.72
2023-12-17T14:54:09.145Z,101556.91
2023-12-17T14:56:36.993Z,101548.19
2023-12-17T14:59:04.003Z,101548.88
2023-12-17T15:01:35.118Z,101541.78
2023-12-17T15:04:04.747Z,101545.47
2023-12-17T15:06:34.093Z,101541.09
2023-12-17T15:09:01.813Z,101525.00
2023-12-17T15:11:29.823Z,101526.47
2023-12-17T15:13:57.317Z,101519.50
2023-12-17T15:16:24.738Z,101495.00
2023-12-17T15:18:52.067Z,101488.22
2023-12-17T15:21:19.529Z,101488.31
2023-12-17T15:23:48.859Z,101502.41
2023-12-17T15:26:16.124Z,101503.59
2023-12-17T15:28:45.596Z,101497.06
2023-12-17T15:31:19.222Z,101513.38
2023-12-17T15:33:49.834Z,101518.25
2023-12-17T15:36:20.418Z,101519.66
2023-12-17T15:38:49.349Z,101534.25
2023-12-17T15:41:19.852Z,101530.63
2023-12-17T15:43:47.392Z,101535.31
2023-12-17T15:46:21.901Z,101528.09
2023-12-17T15:48:49.507Z,101514.56
2023-12-17T15:51:18.616Z,101541.97
2023-12-17T15:53:46.121Z,101532.34
2023-12-17T15:56:14.873Z,101543.09
2023-12-17T15:58:41.705Z,101542.25
2023-12-17T16:01:09.083Z,101541.09
2023-12-17T16:03:38.406Z,101539.06
2023-12-17T16:06:09.045Z,101543.59
2023-12-17T16:08:35.745Z,101549.31
2023-12-17T16:11:03.035Z,101546.13
2023-12-17T16:13:31.449Z,101539.50
2023-12-17T16:15:58.679Z,101546.22
2023-12-17T16:18:26.427Z,101547.22
2023-12-17T16:20:54.167Z,101547.91
2023-12-17T16:23:21.515Z,101547.78
2023-12-17T16:25:48.462Z,101541.75
2023-12-17T16:28:15.208Z,101523.59
2023-12-17T16:30:44.672Z,101535.47
2023-12-17T16:33:12.686Z,101527.56
2023-12-17T16:35:40.271Z,101524.25
2023-12-17T16:38:07.499Z,101514.34
2023-12-17T16:40:34.488Z,101524.16
2023-12-17T16:43:04.600Z,101519.44
2023-12-17T16:45:31.570Z,101510.66
2023-12-17T16:47:59.833Z,101512.03
2023-12-17T16:50:26.732Z,101520.53
2023-12-17T16:52:53.529Z,101511.34
2023-12-17T16:55:20.541Z,101510.50
2023-12-17T16:57:47.621Z,101507.28
2023-12-17T17:00:15.691Z,101516.78
2023-12-17T17:02:42.784Z,101527.81
2023-12-17T17:05:12.156Z,101536.47
2023-12-17T17:07:38.870Z,101546.19
2023-12-17T17:10:06.711Z,101541.44
2023-12-17T17:12:33.399Z,101551.03
2023-12-17T17:15:00.924Z,101556.66
2023-12-17T17:17:28.456Z,101560.47
2023-12-17T17:19:56.304Z,101555.06
2023-12-17T17:22:25.437Z,101568.69
2023-12-17T17:24:52.210Z,101561.53
2023-12-17T17:27:18.960Z,101560.69
2023-12-17T17:29:45.964Z,101555.00
2023-12-17T17:32:13.640Z,101544.38
2023-12-17T17:34:40.987Z,101545.13
2023-12-17T17:37:08.251Z,101553.56
2023-12-17T17:39:36.569Z,101549.63
2023-12-17T17:42:03.615Z,101553.47
2023-12-17T17:44:30.513Z,101540.81
2023-12-17T17:46:57.190Z,101533.81
2023-12-17T17:49:24.464Z,101539.22
2023-12-17T17:51:51.537Z,101548.44
2023-12-17T17:54:19.152Z,101538.31
2023-12-17T17:56:49.654Z,101541.06
2023-12-17T17:59:16.487Z,101548.09
2023-12-17T18:01:43.261Z,101547.41
2023-12-17T18:04:09.956Z,101536.69
2023-12-17T18:06:36.784Z,101531.38
2023-12-17T18:09:03.988Z,101539.91
2023-12-17T18:11:30.745Z,101532.44
2023-12-17T18:13:58.814Z,101542.50
2023-12-17T18:16:25.773Z,101539.22
2023-12-17T18:18:52.570Z,101530.00
2023-12-17T18:21:19.896Z,101542.91
2023-12-17T18:23:48.122Z,101529.16
2023-12-17T18:26:21.315Z,101515.31
2023-12-17T18:28:48.129Z,101528.53
2023-12-17T18:31:16.326Z,101525.47
2023-12-17T18:33:43.562Z,101520.00
2023-12-17T18:36:10.634Z,101518.34
2023-12-17T18:38:37.275Z,101510.38
2023-12-17T18:41:04.229Z,101521.19
2023-12-17T18:43:30.966Z,101518.81
2023-12-17T18:45:57.660Z,101530.63
2023-12-17T18:48:25.955Z,101525.84
2023-12-17T18:50:52.763Z,101522.41
2023-12-17T18:53:19.610Z,101524.06
2023-12-17T18:55:46.373Z,101523.31
2023-12-17T18:58:13.041Z,101517.25
2023-12-17T19:00:39.787Z,101501.41
2023-12-17T19:03:06.610Z,101494.16
2023-12-17T19:05:34.872Z,101499.44
2023-12-17T19:08:01.591Z,101505.09
2023-12-17T19:10:28.559Z,101496.53
2023-12-17T19:12:55.194Z,101512.34
2023-12-17T19:15:21.954Z,101504.75
2023-12-17T19:17:48.863Z,101498.84
2023-12-17T19:20:15.852Z,101505.41
2023-12-17T19:22:44.381Z,101504.53
2023-12-17T19:25:11.565Z,101492.00
2023-12-17T19:27:38.526Z,101492.97
2023-12-17T19:30:06.414Z,101487.06
2023-12-17T19:32:33.317Z,101485.59
2023-12-17T19:35:00.073Z,101484.63
2023-12-17T19:37:27.383Z,101478.97
2023-12-17T19:39:55.436Z,101485.53
2023-12-17T19:42:22.703Z,101481.81
2023-12-17T19:44:50.002Z,101483.88
2023-12-17T19:47:16.700Z,101475.38
2023-12-17T19:49:44.494Z,101484.00
2023-12-17T19:52:11.834Z,101480.38
2023-12-17T19:54:39.737Z,101479.69
2023-12-17T19:57:09.342Z,101478.59
2023-12-17T19:59:36.673Z,101480.34
2023-12-17T20:02:03.413Z,101472.13
2023-12-17T20:04:30.309Z,101476.97
2023-12-17T20:06:57.433Z,101474.22
2023-12-17T20:09:24.810Z,101470.53
2023-12-17T20:11:52.225Z,101482.38
2023-12-17T20:14:20.836Z,101476.69
2023-12-17T20:16:49.921Z,101488.06
2023-12-17T20:19:17.460Z,101494.22
2023-12-17T20:21:44.695Z,101492.88
2023-12-17T20:24:12.595Z,101493.13
2023-12-17T20:26:39.690Z,101486.97
2023-12-17T20:29:08.436Z,101500.72
2023-12-17T20:31:37.221Z,101505.59
2023-12-17T20:34:04.034Z,101515.25
2023-12-17T20:36:31.429Z,101506.44
2023-12-17T20:38:58.867Z,101491.03
2023-12-17T20:41:26.723Z,101490.38
2023-12-17T20:43:54.314Z,101485.22
2023-12-17T20:46:21.876Z,101483.44
2023-12-17T20:48:51.151Z,101493.81
2023-12-17T20:51:20.794Z,101491.72
2023-12-17T20:53:50.545Z,101496.94
2023-12-17T20:56:18.106Z,101509.16
2023-12-17T20:58:45.157Z,101501.50
2023-12-17T21:01:12.418Z,101502.16
2023-12-17T21:03:40.007Z,101510.25
2023-12-17T21:06:11.775Z,101529.34
2023-12-17T21:08:38.830Z,101522.41
2023-12-17T21:11:05.643Z,101517.34
2023-12-17T21:13:32.522Z,101523.22
2023-12-17T21:15:59.788Z,101530.75
2023-12-17T21:18:27.440Z,101528.81
2023-12-17T21:20:54.711Z,101524.16
2023-12-17T21:23:23.306Z,101532.38
2023-12-17T21:25:51.069Z,101523.38
2023-12-17T21:28:18.252Z,101519.16
2023-12-17T21:30:45.485Z,101505.47
2023-12-17T21:33:13.176Z,101513.00
2023-12-17T21:35:40.443Z,101511.75
2023-12-17T21:38:07.613Z,101509.66
2023-12-17T21:40:38.926Z,101531.38
2023-12-17T21:43:06.108Z,101524.59
2023-12-17T21:45:33.326Z,101524.28
2023-12-17T21:48:03.537Z,101510.91
2023-12-17T21:50:30.262Z,101519.59
2023-12-17T21:52:57.602Z,101498.88
2023-12-17T21:55:25.582Z,101501.63
2023-12-17T21:57:54.542Z,101503.97
2023-12-17T22:00:21.301Z,101501.81
2023-12-17T22:02:48.793Z,101495.41
2023-12-17T22:05:22.572Z,101490.56
2023-12-17T22:07:50.123Z,101488.81
2023-12-17T22:10:17.512Z,101487.44
2023-12-17T22:12:45.579Z,101488.72
2023-12-17T22:15:14.411Z,101485.19
2023-12-17T22:17:42.400Z,101472.50
2023-12-17T22:20:11.262Z,101476.72
2023-12-17T22:22:38.538Z,101479.34
2023-12-17T22:25:06.872Z,101470.00
2023-12-17T22:27:34.524Z,101477.25
2023-12-17T22:30:01.860Z,101470.72
2023-12-17T22:32:30.847Z,101468.34
2023-12-17T22:34:58.576Z,101460.97
2023-12-17T22:37:28.688Z,101462.63
2023-12-17T22:39:55.926Z,101468.47
2023-12-17T22:42:23.176Z,101457.25
2023-12-17T22:44:50.721Z,101450.09
2023-12-17T22:47:17.953Z,101449.38
2023-12-17T22:49:47.832Z,101459.28
2023-12-17T22:52:14.635Z,101471.09
2023-12-17T22:54:42.073Z,101461.50
2023-12-17T22:57:09.790Z,101472.88
2023-12-17T22:59:39.176Z,101473.94
2023-12-17T23:02:06.605Z,101465.09
2023-12-17T23:04:34.185Z,101465.84
2023-12-17T23:07:02.943Z,101472.47
2023-12-17T23:09:30.046Z,101488.50
2023-12-17T23:11:57.798Z,101479.50
2023-12-17T23:14:25.097Z,101482.31
2023-12-17T23:16:52.348Z,101484.00
2023-12-17T23:19:20.093Z,101498.06
2023-12-17T23:21:47.632Z,101497.03
2023-12-17T23:24:16.529Z,101496.06
2023-12-17T23:26:43.215Z,101497.88
2023-12-17T23:29:09.884Z,101483.88
2023-12-17T23:31:37.135Z,101471.50
2023-12-17T23:34:04.666Z,101485.72
2023-12-17T23:36:32.142Z,101481.69
2023-12-17T23:38:59.868Z,101486.75
2023-12-17T23:41:29.126Z,101489.06
2023-12-17T23:43:56.446Z,101483.41
2023-12-17T23:46:23.774Z,101482.72
2023-12-17T23:48:51.351Z,101486.44
2023-12-17T23:51:21.666Z,101490.47
2023-12-17T23:53:49.134Z,101494.44
2023-12-17T23:56:16.787Z,101491.88
2023-12-17T23:58:45.913Z,101493.94
